createdAt,value
2023-05-08T00:00:28.643Z,25.69
2023-05-08T00:01:28.739Z,25.68
2023-05-08T00:02:28.929Z,25.68
2023-05-08T00:03:29.138Z,25.68
2023-05-08T00:04:29.007Z,25.68
2023-05-08T00:05:29.083Z,25.69
2023-05-08T00:06:29.539Z,25.65
2023-05-08T00:07:29.254Z,25.66
2023-05-08T00:08:29.412Z,25.66
2023-05-08T00:09:29.444Z,25.66
2023-05-08T00:10:29.527Z,25.68
2023-05-08T00:11:29.649Z,25.68
2023-05-08T00:12:29.730Z,25.65
2023-05-08T00:13:29.802Z,25.66
2023-05-08T00:14:29.892Z,25.66
2023-05-08T00:15:29.983Z,25.66
2023-05-08T00:16:30.144Z,25.65
2023-05-08T00:17:30.210Z,25.65
2023-05-08T00:18:30.273Z,25.65
2023-05-08T00:19:30.364Z,25.65
2023-05-08T00:20:30.469Z,25.65
2023-05-08T00:21:30.617Z,25.66
2023-05-08T00:22:30.654Z,25.61
2023-05-08T00:23:30.764Z,25.66
2023-05-08T00:24:30.867Z,25.64
2023-05-08T00:25:30.966Z,25.64
2023-05-08T00:26:31.143Z,25.65
2023-05-08T00:27:31.180Z,25.64
2023-05-08T00:28:31.246Z,25.62
2023-05-08T00:29:31.462Z,25.64
2023-05-08T00:30:31.480Z,25.64
2023-05-08T00:31:31.640Z,25.64
2023-05-08T00:32:31.664Z,25.65
2023-05-08T00:33:31.753Z,25.64
2023-05-08T00:34:31.858Z,25.64
2023-05-08T00:35:31.943Z,25.65
2023-05-08T00:36:32.051Z,25.62
2023-05-08T00:37:32.148Z,25.62
2023-05-08T00:38:32.244Z,25.64
2023-05-08T00:39:32.350Z,25.65
2023-05-08T00:40:32.453Z,25.62
2023-05-08T00:41:32.557Z,25.62
2023-05-08T00:42:32.674Z,25.64
2023-05-08T00:43:32.755Z,25.64
2023-05-08T00:44:32.852Z,25.62
2023-05-08T00:45:32.961Z,25.61
2023-05-08T00:46:33.087Z,25.62
2023-05-08T00:47:33.174Z,25.64
2023-05-08T00:48:33.267Z,25.58
2023-05-08T00:49:33.338Z,25.62
2023-05-08T00:50:33.440Z,25.61
2023-05-08T00:51:33.588Z,25.61
2023-05-08T00:52:33.632Z,25.62
2023-05-08T00:53:33.725Z,25.62
2023-05-08T00:54:33.820Z,25.62
2023-05-08T00:55:33.919Z,25.60
2023-05-08T00:56:34.013Z,25.60
2023-05-08T00:57:34.106Z,25.62
2023-05-08T00:58:34.213Z,25.64
2023-05-08T00:59:34.295Z,25.61
2023-05-08T01:00:34.387Z,25.62
2023-05-08T01:01:34.566Z,25.61
2023-05-08T01:02:34.653Z,25.61
2023-05-08T01:03:34.792Z,25.58
2023-05-08T01:04:34.794Z,25.60
2023-05-08T01:05:34.887Z,25.60
2023-05-08T01:06:34.976Z,25.61
2023-05-08T01:07:35.077Z,25.60
2023-05-08T01:08:35.164Z,25.60
2023-05-08T01:09:35.266Z,25.60
2023-05-08T01:10:35.362Z,25.60
2023-05-08T01:11:35.469Z,25.61
2023-05-08T01:12:35.567Z,25.60
2023-05-08T01:13:35.674Z,25.61
2023-05-08T01:14:35.788Z,25.60
2023-05-08T01:15:35.873Z,25.60
2023-05-08T01:16:35.994Z,25.58
2023-05-08T01:17:36.107Z,25.58
2023-05-08T01:18:36.175Z,25.60
2023-05-08T01:19:36.293Z,25.60
2023-05-08T01:20:36.380Z,25.60
2023-05-08T01:21:36.557Z,25.58
2023-05-08T01:22:36.602Z,25.58
2023-05-08T01:23:36.703Z,25.57
2023-05-08T01:24:36.791Z,25.58
2023-05-08T01:25:36.900Z,25.57
2023-05-08T01:26:37.066Z,25.57
2023-05-08T01:27:37.116Z,25.57
2023-05-08T01:28:37.216Z,25.58
2023-05-08T01:29:37.314Z,25.57
2023-05-08T01:30:37.425Z,25.55
2023-05-08T01:31:37.529Z,25.58
2023-05-08T01:32:37.651Z,25.55
2023-05-08T01:33:37.778Z,25.57
2023-05-08T01:34:37.845Z,25.55
2023-05-08T01:35:37.950Z,25.55
2023-05-08T01:36:38.067Z,25.57
2023-05-08T01:37:38.151Z,25.54
2023-05-08T01:38:38.265Z,25.57
2023-05-08T01:39:38.355Z,25.54
2023-05-08T01:40:38.462Z,25.54
2023-05-08T01:41:38.584Z,25.54
2023-05-08T01:42:38.661Z,25.54
2023-05-08T01:43:38.777Z,25.54
2023-05-08T01:44:38.883Z,25.52
2023-05-08T01:45:39.005Z,25.54
2023-05-08T01:46:39.105Z,25.54
2023-05-08T01:47:39.249Z,25.55
2023-05-08T01:48:39.306Z,25.54
2023-05-08T01:49:39.413Z,25.55
2023-05-08T01:50:40.111Z,25.54
2023-05-08T01:51:40.080Z,25.54
2023-05-08T01:52:39.729Z,25.51
2023-05-08T01:53:39.842Z,25.54
2023-05-08T01:54:40.026Z,25.51
2023-05-08T01:55:40.057Z,25.54
2023-05-08T01:56:40.178Z,25.54
2023-05-08T01:57:40.390Z,25.51
2023-05-08T01:58:40.393Z,25.51
2023-05-08T01:59:41.071Z,25.48
2023-05-08T02:00:40.593Z,25.54
2023-05-08T02:01:40.696Z,25.49
2023-05-08T02:02:40.881Z,25.51
2023-05-08T02:03:40.910Z,25.51
2023-05-08T02:04:41.006Z,25.51
2023-05-08T02:05:41.156Z,25.52
2023-05-08T02:06:41.266Z,25.51
2023-05-08T02:07:41.314Z,25.51
2023-05-08T02:08:41.438Z,25.52
2023-05-08T02:09:41.590Z,25.51
2023-05-08T02:10:41.637Z,25.51
2023-05-08T02:11:41.752Z,25.48
2023-05-08T02:12:41.915Z,25.49
2023-05-08T02:13:41.976Z,25.49
2023-05-08T02:14:42.072Z,25.48
2023-05-08T02:15:42.174Z,25.49
2023-05-08T02:16:42.345Z,25.51
2023-05-08T02:17:42.435Z,25.48
2023-05-08T02:18:42.471Z,25.45
2023-05-08T02:19:42.597Z,25.48
2023-05-08T02:20:42.679Z,25.51
2023-05-08T02:21:42.803Z,25.48
2023-05-08T02:22:43.580Z,25.51
2023-05-08T02:23:43.014Z,25.47
2023-05-08T02:24:43.118Z,25.48
2023-05-08T02:25:43.298Z,25.49
2023-05-08T02:26:43.349Z,25.47
2023-05-08T02:27:43.516Z,25.49
2023-05-08T02:28:43.545Z,25.48
2023-05-08T02:29:43.654Z,25.47
2023-05-08T02:30:44.608Z,25.48
2023-05-08T02:31:43.897Z,25.45
2023-05-08T02:32:44.003Z,25.45
2023-05-08T02:33:44.088Z,25.45
2023-05-08T02:34:54.792Z,25.45
2023-05-08T02:35:46.082Z,25.45
2023-05-08T02:36:44.253Z,25.44
2023-05-08T02:37:44.292Z,25.47
2023-05-08T02:38:44.334Z,25.44
2023-05-08T02:39:44.380Z,25.45
2023-05-08T02:40:44.427Z,25.45
2023-05-08T02:41:44.465Z,25.45
2023-05-08T02:42:44.502Z,25.47
2023-05-08T02:43:44.547Z,25.45
2023-05-08T02:44:44.607Z,25.42
2023-05-08T02:45:44.826Z,25.47
2023-05-08T02:46:44.857Z,25.45
2023-05-08T02:47:44.952Z,25.42
2023-05-08T02:48:45.040Z,25.42
2023-05-08T02:49:45.152Z,25.42
2023-05-08T02:50:45.266Z,25.44
2023-05-08T02:51:45.371Z,25.44
2023-05-08T02:52:45.460Z,25.42
2023-05-08T02:53:45.539Z,25.42
2023-05-08T02:54:45.653Z,25.44
2023-05-08T02:55:45.737Z,25.42
2023-05-08T02:56:45.810Z,25.42
2023-05-08T02:57:45.944Z,25.42
2023-05-08T02:58:45.988Z,25.44
2023-05-08T02:59:46.082Z,25.44
2023-05-08T03:00:46.195Z,25.41
2023-05-08T03:01:46.315Z,25.38
2023-05-08T03:02:46.485Z,25.41
2023-05-08T03:03:46.574Z,25.40
2023-05-08T03:04:46.605Z,25.40
2023-05-08T03:05:46.709Z,25.40
2023-05-08T03:06:46.825Z,25.40
2023-05-08T03:07:46.914Z,25.42
2023-05-08T03:08:47.031Z,25.38
2023-05-08T03:09:47.124Z,25.41
2023-05-08T03:10:47.228Z,25.38
2023-05-08T03:11:47.340Z,25.38
2023-05-08T03:12:47.539Z,25.40
2023-05-08T03:13:47.553Z,25.38
2023-05-08T03:14:47.669Z,25.37
2023-05-08T03:15:47.806Z,25.40
2023-05-08T03:16:47.851Z,25.38
2023-05-08T03:17:47.979Z,25.38
2023-05-08T03:18:48.047Z,25.38
2023-05-08T03:19:48.121Z,25.37
2023-05-08T03:20:48.238Z,25.37
2023-05-08T03:21:48.321Z,25.37
2023-05-08T03:22:48.426Z,25.37
2023-05-08T03:23:48.482Z,25.37
2023-05-08T03:24:48.594Z,25.37
2023-05-08T03:25:48.755Z,25.38
2023-05-08T03:26:48.795Z,25.37
2023-05-08T03:27:48.886Z,25.37
2023-05-08T03:28:48.972Z,25.37
2023-05-08T03:29:49.068Z,25.34
2023-05-08T03:30:49.163Z,25.35
2023-05-08T03:31:49.305Z,25.35
2023-05-08T03:32:49.447Z,25.38
2023-05-08T03:33:49.487Z,25.35
2023-05-08T03:34:49.586Z,25.33
2023-05-08T03:35:49.739Z,25.35
2023-05-08T03:36:49.759Z,25.34
2023-05-08T03:37:49.853Z,25.35
2023-05-08T03:38:49.963Z,25.35
2023-05-08T03:39:50.057Z,25.34
2023-05-08T03:40:50.160Z,25.33
2023-05-08T03:41:50.253Z,25.33
2023-05-08T03:42:50.350Z,25.33
2023-05-08T03:43:50.447Z,25.33
2023-05-08T03:44:50.569Z,25.33
2023-05-08T03:45:50.694Z,25.33
2023-05-08T03:46:50.805Z,25.33
2023-05-08T03:47:50.865Z,25.30
2023-05-08T03:48:50.955Z,25.33
2023-05-08T03:49:50.975Z,25.31
2023-05-08T03:50:51.082Z,25.31
2023-05-08T03:51:51.240Z,25.30
2023-05-08T03:52:51.264Z,25.30
2023-05-08T03:53:51.344Z,25.30
2023-05-08T03:54:51.443Z,25.33
2023-05-08T03:55:51.533Z,25.31
2023-05-08T03:56:51.615Z,25.31
2023-05-08T03:57:51.714Z,25.31
2023-05-08T03:58:52.633Z,25.28
2023-05-08T03:59:51.919Z,25.28
2023-05-08T04:00:52.008Z,25.31
2023-05-08T04:01:52.148Z,25.30
2023-05-08T04:02:52.278Z,25.30
2023-05-08T04:03:52.374Z,25.30
2023-05-08T04:04:52.404Z,25.30
2023-05-08T04:05:52.500Z,25.27
2023-05-08T04:06:52.610Z,25.28
2023-05-08T04:07:52.680Z,25.28
2023-05-08T04:08:52.765Z,25.30
2023-05-08T04:09:52.874Z,25.27
2023-05-08T04:10:52.971Z,25.30
2023-05-08T04:11:53.072Z,25.28
2023-05-08T04:12:53.284Z,25.28
2023-05-08T04:13:53.260Z,25.28
2023-05-08T04:14:56.238Z,25.27
2023-05-08T04:15:53.385Z,25.31
2023-05-08T04:16:53.502Z,25.27
2023-05-08T04:17:53.609Z,25.27
2023-05-08T04:18:53.509Z,25.26
2023-05-08T04:19:53.557Z,25.27
2023-05-08T04:20:53.609Z,25.27
2023-05-08T04:21:53.679Z,25.26
2023-05-08T04:22:53.684Z,25.27
2023-05-08T04:23:53.733Z,25.27
2023-05-08T04:24:53.776Z,25.24
2023-05-08T04:25:53.819Z,25.27
2023-05-08T04:26:53.860Z,25.24
2023-05-08T04:27:53.945Z,25.27
2023-05-08T04:28:53.946Z,25.26
2023-05-08T04:29:53.994Z,25.26
2023-05-08T04:30:54.040Z,25.26
2023-05-08T04:31:54.195Z,25.26
2023-05-08T04:32:54.167Z,25.23
2023-05-08T04:33:54.198Z,25.26
2023-05-08T04:34:54.212Z,25.23
2023-05-08T04:35:54.258Z,25.23
2023-05-08T04:36:54.353Z,25.23
2023-05-08T04:37:55.146Z,25.23
2023-05-08T04:38:54.381Z,25.24
2023-05-08T04:39:54.449Z,25.24
2023-05-08T04:40:54.475Z,25.24
2023-05-08T04:41:54.504Z,25.23
2023-05-08T04:42:54.567Z,25.21
2023-05-08T04:43:54.609Z,25.24
2023-05-08T04:44:54.800Z,25.23
2023-05-08T04:45:54.705Z,25.21
2023-05-08T04:46:54.739Z,25.23
2023-05-08T04:47:54.831Z,25.26
2023-05-08T04:48:54.835Z,25.20
2023-05-08T04:49:54.867Z,25.23
2023-05-08T04:50:54.911Z,25.23
2023-05-08T04:51:54.955Z,25.21
2023-05-08T04:52:55.044Z,25.20
2023-05-08T04:53:55.045Z,25.23
2023-05-08T04:54:55.122Z,25.21
2023-05-08T04:55:55.237Z,25.20
2023-05-08T04:56:55.325Z,25.20
2023-05-08T04:57:55.425Z,25.21
2023-05-08T04:58:55.522Z,25.18
2023-05-08T04:59:55.728Z,25.20
2023-05-08T05:00:55.716Z,25.21
2023-05-08T05:01:55.886Z,25.17
2023-05-08T05:02:55.987Z,25.18
2023-05-08T05:03:56.058Z,25.20
2023-05-08T05:04:56.138Z,25.18
2023-05-08T05:05:56.239Z,25.20
2023-05-08T05:06:56.347Z,25.14
2023-05-08T05:07:56.455Z,25.17
2023-05-08T05:08:56.610Z,25.17
2023-05-08T05:09:56.744Z,25.20
2023-05-08T05:10:56.754Z,25.13
2023-05-08T05:11:58.150Z,25.16
2023-05-08T05:12:57.003Z,25.17
2023-05-08T05:13:57.074Z,25.16
2023-05-08T05:14:57.192Z,25.16
2023-05-08T05:15:57.322Z,25.16
2023-05-08T05:16:57.397Z,25.16
2023-05-08T05:17:57.572Z,25.13
2023-05-08T05:18:57.611Z,25.16
2023-05-08T05:19:58.172Z,25.11
2023-05-08T05:20:57.915Z,25.11
2023-05-08T05:21:57.925Z,25.10
2023-05-08T05:22:58.673Z,25.11
2023-05-08T05:23:58.050Z,25.09
2023-05-08T05:24:58.212Z,25.09
2023-05-08T05:25:58.161Z,25.05
2023-05-08T05:26:58.211Z,25.03
2023-05-08T05:27:58.269Z,25.03
2023-05-08T05:28:58.358Z,25.06
2023-05-08T05:29:58.388Z,25.05
2023-05-08T05:30:58.499Z,25.05
2023-05-08T05:31:58.725Z,25.03
2023-05-08T05:32:58.703Z,25.06
2023-05-08T05:33:58.740Z,25.09
2023-05-08T05:34:59.024Z,25.10
2023-05-08T05:35:59.664Z,25.07
2023-05-08T05:36:58.994Z,25.10
2023-05-08T05:37:59.103Z,25.07
2023-05-08T05:38:59.288Z,25.10
2023-05-08T05:39:59.333Z,25.09
2023-05-08T05:41:00.121Z,25.07
2023-05-08T05:41:59.544Z,25.11
2023-05-08T05:42:59.656Z,25.10
2023-05-08T05:43:59.965Z,25.13
2023-05-08T05:44:59.887Z,25.10
2023-05-08T05:45:59.995Z,25.10
2023-05-08T05:47:00.212Z,25.09
2023-05-08T05:48:00.402Z,25.09
2023-05-08T05:49:00.311Z,25.10
2023-05-08T05:50:00.428Z,25.10
2023-05-08T05:51:00.541Z,25.09
2023-05-08T05:52:00.659Z,25.09
2023-05-08T05:53:00.766Z,25.09
2023-05-08T05:54:00.864Z,25.09
2023-05-08T05:55:01.600Z,25.10
2023-05-08T05:56:01.066Z,25.10
2023-05-08T05:57:01.278Z,25.10
2023-05-08T05:58:01.310Z,25.07
2023-05-08T05:59:01.471Z,25.10
2023-05-08T06:00:01.512Z,25.10
2023-05-08T06:01:01.614Z,25.09
2023-05-08T06:02:01.757Z,25.06
2023-05-08T06:03:01.927Z,25.05
2023-05-08T06:04:01.994Z,25.06
2023-05-08T06:05:02.014Z,25.09
2023-05-08T06:06:02.145Z,25.07
2023-05-08T06:07:02.234Z,25.07
2023-05-08T06:08:02.326Z,25.03
2023-05-08T06:09:02.440Z,25.07
2023-05-08T06:10:02.615Z,25.06
2023-05-08T06:11:02.617Z,25.03
2023-05-08T06:12:03.676Z,25.05
2023-05-08T06:13:02.863Z,25.03
2023-05-08T06:14:02.949Z,25.06
2023-05-08T06:15:03.055Z,25.03
2023-05-08T06:16:03.140Z,25.03
2023-05-08T06:17:03.264Z,25.05
2023-05-08T06:18:03.463Z,25.02
2023-05-08T06:19:03.426Z,25.02
2023-05-08T06:20:03.504Z,25.00
2023-05-08T06:21:03.675Z,25.02
2023-05-08T06:22:03.721Z,25.02
2023-05-08T06:23:03.827Z,25.00
2023-05-08T06:24:03.920Z,24.97
2023-05-08T06:25:04.041Z,25.02
2023-05-08T06:26:04.122Z,24.99
2023-05-08T06:27:04.237Z,25.00
2023-05-08T06:28:04.688Z,24.97
2023-05-08T06:29:04.545Z,24.96
2023-05-08T06:30:04.550Z,24.99
2023-05-08T06:31:04.684Z,24.97
2023-05-08T06:32:04.662Z,24.97
2023-05-08T06:33:05.792Z,24.96
2023-05-08T06:34:04.826Z,24.96
2023-05-08T06:35:04.904Z,24.96
2023-05-08T06:36:04.992Z,24.94
2023-05-08T06:37:05.078Z,24.94
2023-05-08T06:38:05.176Z,24.94
2023-05-08T06:39:05.280Z,24.97
2023-05-08T06:40:12.209Z,24.97
2023-05-08T06:41:06.416Z,24.93
2023-05-08T06:42:05.473Z,24.96
2023-05-08T06:43:05.498Z,24.99
2023-05-08T06:44:05.537Z,24.97
2023-05-08T06:45:05.740Z,24.97
2023-05-08T06:46:05.668Z,24.94
2023-05-08T06:47:05.677Z,24.96
2023-05-08T06:48:05.757Z,24.94
2023-05-08T06:49:05.749Z,24.94
2023-05-08T06:50:06.196Z,24.97
2023-05-08T06:51:05.847Z,24.97
2023-05-08T06:52:05.888Z,24.96
2023-05-08T06:53:05.944Z,24.91
2023-05-08T06:54:06.029Z,24.93
2023-05-08T06:55:06.026Z,24.93
2023-05-08T06:56:06.081Z,24.93
2023-05-08T06:57:06.108Z,24.94
2023-05-08T06:58:06.179Z,24.94
2023-05-08T06:59:08.720Z,24.94
2023-05-08T07:00:06.258Z,24.96
2023-05-08T07:01:06.340Z,24.94
2023-05-08T07:02:06.428Z,24.96
2023-05-08T07:03:06.473Z,24.94
2023-05-08T07:04:06.600Z,24.96
2023-05-08T07:05:06.507Z,24.93
2023-05-08T07:06:06.511Z,24.94
2023-05-08T07:07:06.558Z,24.94
2023-05-08T07:08:06.604Z,24.93
2023-05-08T07:09:06.648Z,24.93
2023-05-08T07:10:07.914Z,24.93
2023-05-08T07:11:06.733Z,24.90
2023-05-08T07:12:06.776Z,24.93
2023-05-08T07:13:06.841Z,24.91
2023-05-08T07:14:06.884Z,24.91
2023-05-08T07:15:17.885Z,24.91
2023-05-08T07:16:08.009Z,24.89
2023-05-08T07:17:07.082Z,24.91
2023-05-08T07:18:07.098Z,24.90
2023-05-08T07:19:07.082Z,24.89
2023-05-08T07:20:07.146Z,24.85
2023-05-08T07:21:07.216Z,24.85
2023-05-08T07:22:07.233Z,24.85
2023-05-08T07:23:07.278Z,24.79
2023-05-08T07:24:07.334Z,24.73
2023-05-08T07:25:07.384Z,24.72
2023-05-08T07:26:07.434Z,24.69
2023-05-08T07:27:07.553Z,24.68
2023-05-08T07:28:07.559Z,24.65
2023-05-08T07:29:07.671Z,24.59
2023-05-08T07:30:07.752Z,24.59
2023-05-08T07:31:07.929Z,24.54
2023-05-08T07:32:08.044Z,24.54
2023-05-08T07:33:08.165Z,24.51
2023-05-08T07:34:08.734Z,24.49
2023-05-08T07:35:10.352Z,24.51
2023-05-08T07:36:08.559Z,24.52
2023-05-08T07:37:09.222Z,24.52
2023-05-08T07:38:08.771Z,24.58
2023-05-08T07:39:08.853Z,24.56
2023-05-08T07:40:09.641Z,24.59
2023-05-08T07:41:09.011Z,24.58
2023-05-08T07:42:09.047Z,24.55
2023-05-08T07:43:09.101Z,24.58
2023-05-08T07:44:09.193Z,24.55
2023-05-08T07:45:09.297Z,24.58
2023-05-08T07:46:09.412Z,24.60
2023-05-08T07:47:09.595Z,24.60
2023-05-08T07:48:09.719Z,24.65
2023-05-08T07:49:09.793Z,24.69
2023-05-08T07:50:09.818Z,24.70
2023-05-08T07:51:09.919Z,24.72
2023-05-08T07:52:10.011Z,24.72
2023-05-08T07:53:10.107Z,24.75
2023-05-08T07:54:10.179Z,24.73
2023-05-08T07:55:10.495Z,24.80
2023-05-08T07:56:10.330Z,24.80
2023-05-08T07:57:10.410Z,24.82
2023-05-08T07:58:10.501Z,24.82
2023-05-08T07:59:10.577Z,24.86
2023-05-08T08:00:10.636Z,24.91
2023-05-08T08:01:10.700Z,24.96
2023-05-08T08:02:10.833Z,25.02
2023-05-08T08:03:10.940Z,25.03
2023-05-08T08:04:12.782Z,25.06
2023-05-08T08:05:11.135Z,25.09
2023-05-08T08:06:10.979Z,25.11
2023-05-08T08:07:11.648Z,25.14
2023-05-08T08:08:11.058Z,25.17
2023-05-08T08:09:11.102Z,25.17
2023-05-08T08:10:11.169Z,25.26
2023-05-08T08:11:11.167Z,25.27
2023-05-08T08:12:11.206Z,25.31
2023-05-08T08:13:11.281Z,25.34
2023-05-08T08:14:11.284Z,25.35
2023-05-08T08:15:11.575Z,25.40
2023-05-08T08:16:11.381Z,25.37
2023-05-08T08:17:11.569Z,25.38
2023-05-08T08:18:11.544Z,25.38
2023-05-08T08:19:11.488Z,25.37
2023-05-08T08:20:11.622Z,25.31
2023-05-08T08:21:11.589Z,25.20
2023-05-08T08:22:11.642Z,25.14
2023-05-08T08:23:11.691Z,25.05
2023-05-08T08:24:11.743Z,25.03
2023-05-08T08:25:11.974Z,25.05
2023-05-08T08:26:11.825Z,25.00
2023-05-08T08:27:11.874Z,25.03
2023-05-08T08:28:11.910Z,25.02
2023-05-08T08:29:11.966Z,25.00
2023-05-08T08:30:17.012Z,25.00
2023-05-08T08:31:13.805Z,25.05
2023-05-08T08:32:12.070Z,25.03
2023-05-08T08:33:12.170Z,25.02
2023-05-08T08:34:12.150Z,25.05
2023-05-08T08:35:12.631Z,25.09
2023-05-08T08:36:12.307Z,25.07
2023-05-08T08:37:12.268Z,25.07
2023-05-08T08:38:12.305Z,25.06
2023-05-08T08:39:13.863Z,25.07
2023-05-08T08:40:12.367Z,25.03
2023-05-08T08:41:12.386Z,25.03
2023-05-08T08:42:12.414Z,25.05
2023-05-08T08:43:12.462Z,25.06
2023-05-08T08:44:13.245Z,25.03
2023-05-08T08:45:13.035Z,25.09
2023-05-08T08:46:12.556Z,25.07
2023-05-08T08:47:12.563Z,25.10
2023-05-08T08:48:12.602Z,25.09
2023-05-08T08:49:12.633Z,25.10
2023-05-08T08:50:14.570Z,25.11
2023-05-08T08:51:12.682Z,25.11
2023-05-08T08:52:12.811Z,25.14
2023-05-08T08:53:12.801Z,25.16
2023-05-08T08:54:12.776Z,25.14
2023-05-08T08:55:13.501Z,25.18
2023-05-08T08:56:12.834Z,25.18
2023-05-08T08:57:12.926Z,25.21
2023-05-08T08:58:13.017Z,25.18
2023-05-08T08:59:13.120Z,25.23
2023-05-08T09:00:13.210Z,25.27
2023-05-08T09:01:13.307Z,25.26
2023-05-08T09:02:13.509Z,25.30
2023-05-08T09:03:13.560Z,25.31
2023-05-08T09:04:13.609Z,25.35
2023-05-08T09:05:14.016Z,25.37
2023-05-08T09:06:14.266Z,25.37
2023-05-08T09:07:13.874Z,25.40
2023-05-08T09:08:14.052Z,25.45
2023-05-08T09:09:14.062Z,25.49
2023-05-08T09:10:14.147Z,25.52
2023-05-08T09:11:14.310Z,25.55
2023-05-08T09:12:14.329Z,25.58
2023-05-08T09:13:14.429Z,25.62
2023-05-08T09:14:14.431Z,25.62
2023-05-08T09:15:14.794Z,25.60
2023-05-08T09:16:14.661Z,25.54
2023-05-08T09:17:14.719Z,25.49
2023-05-08T09:18:14.922Z,25.49
2023-05-08T09:19:14.954Z,25.49
2023-05-08T09:20:15.284Z,25.49
2023-05-08T09:21:15.182Z,25.49
2023-05-08T09:22:15.292Z,25.49
2023-05-08T09:23:15.410Z,25.49
2023-05-08T09:24:15.863Z,25.49
2023-05-08T09:25:15.743Z,25.51
2023-05-08T09:26:15.722Z,25.51
2023-05-08T09:27:15.863Z,25.52
2023-05-08T09:28:15.918Z,25.51
2023-05-08T09:29:16.973Z,25.47
2023-05-08T09:30:16.050Z,25.47
2023-05-08T09:31:17.083Z,25.45
2023-05-08T09:32:16.098Z,25.48
2023-05-08T09:33:16.782Z,25.47
2023-05-08T09:34:16.186Z,25.47
2023-05-08T09:35:16.303Z,25.45
2023-05-08T09:36:16.249Z,25.48
2023-05-08T09:37:16.269Z,25.48
2023-05-08T09:38:16.306Z,25.44
2023-05-08T09:39:16.484Z,25.47
2023-05-08T09:40:16.488Z,25.45
2023-05-08T09:41:16.478Z,25.45
2023-05-08T09:42:16.466Z,25.45
2023-05-08T09:43:16.565Z,25.45
2023-05-08T09:44:17.186Z,25.44
2023-05-08T09:45:16.688Z,25.42
2023-05-08T09:46:16.838Z,25.41
2023-05-08T09:47:16.841Z,25.42
2023-05-08T09:48:16.961Z,25.41
2023-05-08T09:49:18.869Z,25.40
2023-05-08T09:50:17.008Z,25.40
2023-05-08T09:51:17.038Z,25.40
2023-05-08T09:52:17.071Z,25.37
2023-05-08T09:53:17.118Z,25.38
2023-05-08T09:54:17.160Z,25.38
2023-05-08T09:55:17.209Z,25.37
2023-05-08T09:56:17.404Z,25.34
2023-05-08T09:57:17.390Z,25.34
2023-05-08T09:58:17.335Z,25.31
2023-05-08T09:59:17.367Z,25.33
2023-05-08T10:00:17.657Z,25.30
2023-05-08T10:01:17.466Z,25.33
2023-05-08T10:02:17.530Z,25.30
2023-05-08T10:03:17.655Z,25.30
2023-05-08T10:04:17.720Z,25.30
2023-05-08T10:05:17.880Z,25.28
2023-05-08T10:06:17.886Z,25.27
2023-05-08T10:07:18.000Z,25.28
2023-05-08T10:08:18.123Z,25.26
2023-05-08T10:09:18.158Z,25.26
2023-05-08T10:10:18.251Z,25.27
2023-05-08T10:11:18.419Z,25.27
2023-05-08T10:12:18.575Z,25.27
2023-05-08T10:13:18.701Z,25.27
2023-05-08T10:14:18.633Z,25.27
2023-05-08T10:15:18.698Z,25.26
2023-05-08T10:16:18.835Z,25.27
2023-05-08T10:17:19.906Z,25.26
2023-05-08T10:18:18.950Z,25.24
2023-05-08T10:19:19.065Z,25.24
2023-05-08T10:20:21.340Z,25.26
2023-05-08T10:21:19.258Z,25.24
2023-05-08T10:22:19.348Z,25.24
2023-05-08T10:23:19.439Z,25.24
2023-05-08T10:24:19.518Z,25.23
2023-05-08T10:25:19.604Z,25.24
2023-05-08T10:26:19.699Z,25.23
2023-05-08T10:27:19.776Z,25.20
2023-05-08T10:28:19.949Z,25.21
2023-05-08T10:29:19.938Z,25.18
2023-05-08T10:30:20.027Z,25.18
2023-05-08T10:31:20.158Z,25.20
2023-05-08T10:32:20.191Z,25.18
2023-05-08T10:33:20.279Z,25.18
2023-05-08T10:34:20.359Z,25.17
2023-05-08T10:35:20.449Z,25.20
2023-05-08T10:36:20.527Z,25.18
2023-05-08T10:37:20.615Z,25.18
2023-05-08T10:38:20.700Z,25.18
2023-05-08T10:39:20.785Z,25.17
2023-05-08T10:40:20.865Z,25.17
2023-05-08T10:41:20.955Z,25.18
2023-05-08T10:42:21.069Z,25.18
2023-05-08T10:43:21.159Z,25.17
2023-05-08T10:44:21.333Z,25.18
2023-05-08T10:45:21.304Z,25.17
2023-05-08T10:46:21.517Z,25.17
2023-05-08T10:47:21.480Z,25.17
2023-05-08T10:48:21.622Z,25.20
2023-05-08T10:49:21.686Z,25.16
2023-05-08T10:50:21.734Z,25.17
2023-05-08T10:51:21.812Z,25.18
2023-05-08T10:52:21.903Z,25.17
2023-05-08T10:53:21.987Z,25.17
2023-05-08T10:54:22.076Z,25.18
2023-05-08T10:55:22.167Z,25.16
2023-05-08T10:56:22.258Z,25.17
2023-05-08T10:57:22.342Z,25.17
2023-05-08T10:58:22.403Z,25.17
2023-05-08T10:59:22.502Z,25.16
2023-05-08T11:00:22.676Z,25.14
2023-05-08T11:01:22.778Z,25.18
2023-05-08T11:02:22.858Z,25.17
2023-05-08T11:03:31.488Z,25.16
2023-05-08T11:04:23.983Z,25.17
2023-05-08T11:05:22.943Z,25.17
2023-05-08T11:06:22.993Z,25.18
2023-05-08T11:07:23.024Z,25.20
2023-05-08T11:08:23.078Z,25.17
2023-05-08T11:09:23.149Z,25.18
2023-05-08T11:10:23.206Z,25.17
2023-05-08T11:11:23.197Z,25.17
2023-05-08T11:12:23.818Z,25.14
2023-05-08T11:13:23.382Z,25.16
2023-05-08T11:14:23.295Z,25.16
2023-05-08T11:15:24.757Z,25.16
2023-05-08T11:16:23.433Z,25.13
2023-05-08T11:17:23.548Z,25.17
2023-05-08T11:18:23.653Z,25.14
2023-05-08T11:19:23.671Z,25.16
2023-05-08T11:20:23.705Z,25.16
2023-05-08T11:21:23.789Z,25.14
2023-05-08T11:22:23.885Z,25.14
2023-05-08T11:23:23.971Z,25.14
2023-05-08T11:24:24.020Z,25.14
2023-05-08T11:25:24.104Z,25.11
2023-05-08T11:26:24.189Z,25.13
2023-05-08T11:27:24.267Z,25.11
2023-05-08T11:28:24.346Z,25.13
2023-05-08T11:29:24.419Z,25.11
2023-05-08T11:30:24.548Z,25.11
2023-05-08T11:31:24.623Z,25.11
2023-05-08T11:32:24.725Z,25.10
2023-05-08T11:33:24.825Z,25.11
2023-05-08T11:34:24.869Z,25.10
2023-05-08T11:35:24.909Z,25.10
2023-05-08T11:36:25.028Z,25.10
2023-05-08T11:37:25.095Z,25.13
2023-05-08T11:38:25.188Z,25.09
2023-05-08T11:39:25.350Z,25.10
2023-05-08T11:40:25.359Z,25.09
2023-05-08T11:41:25.443Z,25.09
2023-05-08T11:42:25.691Z,25.07
2023-05-08T11:43:25.622Z,25.11
2023-05-08T11:44:25.704Z,25.09
2023-05-08T11:45:25.799Z,25.09
2023-05-08T11:46:25.925Z,25.07
2023-05-08T11:47:26.037Z,25.09
2023-05-08T11:48:26.065Z,25.05
2023-05-08T11:49:29.377Z,25.06
2023-05-08T11:50:26.191Z,25.09
2023-05-08T11:51:26.230Z,25.07
2023-05-08T11:52:26.290Z,25.05
2023-05-08T11:53:26.322Z,25.00
2023-05-08T11:54:26.427Z,24.99
2023-05-08T11:55:26.470Z,24.97
2023-05-08T11:56:26.452Z,24.96
2023-05-08T11:57:26.521Z,24.93
2023-05-08T11:58:26.486Z,24.93
2023-05-08T11:59:26.518Z,24.93
2023-05-08T12:00:26.569Z,24.94
2023-05-08T12:01:26.572Z,24.97
2023-05-08T12:02:26.642Z,24.97
2023-05-08T12:03:26.797Z,24.93
2023-05-08T12:04:26.805Z,24.99
2023-05-08T12:05:26.699Z,24.99
2023-05-08T12:06:26.733Z,24.96
2023-05-08T12:07:26.768Z,24.99
2023-05-08T12:08:26.806Z,24.99
2023-05-08T12:09:26.883Z,24.99
2023-05-08T12:10:26.866Z,25.02
2023-05-08T12:11:26.922Z,25.00
2023-05-08T12:12:26.939Z,25.02
2023-05-08T12:13:27.212Z,25.05
2023-05-08T12:14:27.337Z,25.06
2023-05-08T12:15:27.829Z,25.07
2023-05-08T12:16:27.142Z,25.09
2023-05-08T12:17:27.298Z,25.09
2023-05-08T12:18:27.160Z,25.09
2023-05-08T12:19:27.222Z,25.09
2023-05-08T12:20:27.245Z,25.11
2023-05-08T12:21:27.833Z,25.10
2023-05-08T12:22:27.309Z,25.10
2023-05-08T12:23:27.352Z,25.10
2023-05-08T12:24:27.408Z,25.10
2023-05-08T12:25:27.442Z,25.10
2023-05-08T12:26:27.480Z,25.11
2023-05-08T12:27:27.517Z,25.10
2023-05-08T12:28:27.552Z,25.10
2023-05-08T12:29:27.610Z,25.13
2023-05-08T12:30:27.671Z,25.09
2023-05-08T12:31:27.784Z,25.13
2023-05-08T12:32:28.985Z,25.11
2023-05-08T12:33:27.789Z,25.09
2023-05-08T12:34:27.917Z,25.11
2023-05-08T12:35:27.975Z,25.11
2023-05-08T12:36:28.061Z,25.10
2023-05-08T12:37:28.239Z,25.09
2023-05-08T12:38:28.271Z,25.07
2023-05-08T12:39:28.369Z,25.07
2023-05-08T12:40:28.452Z,25.09
2023-05-08T12:41:28.558Z,25.06
2023-05-08T12:42:28.673Z,25.07
2023-05-08T12:43:28.753Z,25.07
2023-05-08T12:44:28.863Z,25.07
2023-05-08T12:45:28.970Z,25.05
2023-05-08T12:46:29.100Z,25.05
2023-05-08T12:47:29.215Z,25.07
2023-05-08T12:48:29.265Z,25.05
2023-05-08T12:49:29.372Z,25.05
2023-05-08T12:50:29.460Z,25.06
2023-05-08T12:51:29.675Z,25.03
2023-05-08T12:52:29.667Z,25.07
2023-05-08T12:53:29.766Z,25.06